Time;durP1;ratioP1;P1;durP2;ratioP2;P2;SDS_P1;SDS_P2;PMS_P1;PMS_P2;Temp;Humidity;BMP_temperature;BMP_pressure;BME280_temperature;BME280_humidity;BME280_pressure;Samples;Min_cycle;Max_cycle;Signal;HPM_P1;HPM_P2
2021/04/01 00:21:57;;;;;;;39.47;29.20;;;;;;;7.26;100.00;100632.44;20886097;27;20629;-58
2021/04/01 00:31:57;;;;;;;32.37;23.80;;;;;;;7.24;100.00;100631.69;20884325;28;20638;-60
2021/04/01 00:41:58;;;;;;;34.37;25.23;;;;;;;7.12;100.00;100619.81;20915900;28;20243;-58
2021/04/01 00:51:58;;;;;;;39.65;28.23;;;;;;;6.98;100.00;100602.81;20882762;28;20235;-59
2021/04/01 01:31:49;;;;;;;45.17;28.20;;;;;;;6.64;100.00;100550.41;20831447;27;20928;-60
2021/04/01 02:01:40;;;;;;;38.97;27.63;;;;;;;6.43;100.00;100521.22;20891454;27;20545;-58
2021/04/01 02:41:35;;;;;;;21.93;16.97;;;;;;;6.08;100.00;100477.72;20809274;28;21053;-59
2021/04/01 02:51:35;;;;;;;34.73;25.63;;;;;;;5.94;100.00;100469.50;20764573;28;20228;-59
2021/04/01 03:31:27;;;;;;;36.53;27.23;;;;;;;5.51;100.00;100443.09;21055478;27;20626;-58
2021/04/01 03:41:28;;;;;;;31.47;21.80;;;;;;;5.56;100.00;100435.81;20988854;27;20225;-59
2021/04/01 04:31:30;;;;;;;42.10;24.70;;;;;;;5.39;100.00;100379.19;20746347;28;20621;-72
2021/04/01 04:41:30;;;;;;;34.73;24.10;;;;;;;5.62;100.00;100372.91;20711484;28;20228;-58
2021/04/01 05:12:09;;;;;;;24.43;19.93;;;;;;;6.61;100.00;100349.88;21007413;27;20864;-65
2021/04/01 05:22:15;;;;;;;26.30;21.03;;;;;;;7.04;100.00;100353.09;21036012;27;20215;-62
2021/04/01 05:42:16;;;;;;;27.07;22.00;;;;;;;8.36;100.00;100332.06;20774585;28;20595;-70
2021/04/01 05:53:04;;;;;;;27.00;23.40;;;;;;;9.25;100.00;100326.06;20731083;28;20680;-59
2021/04/01 06:13:29;;;;;;;28.57;22.57;;;;;;;11.26;100.00;100316.88;20735720;28;20232;-59
2021/04/01 06:23:31;;;;;;;26.30;22.00;;;;;;;12.10;100.00;100313.78;20751811;28;20259;-59
2021/04/01 06:43:58;;;;;;;29.67;23.00;;;;;;;13.91;89.77;100316.31;20880256;27;20583;-60
2021/04/01 07:04:33;;;;;;;36.73;28.80;;;;;;;14.25;86.14;100310.00;20876060;28;20215;-66
2021/04/01 07:14:36;;;;;;;31.97;26.57;;;;;;;14.15;87.65;100297.44;20870546;28;20241;-70
2021/04/01 07:35:46;;;;;;;27.60;24.60;;;;;;;14.22;86.99;100282.56;20885942;28;21190;-74
2021/04/01 08:06:27;;;;;;;25.27;22.40;;;;;;;15.44;82.10;100259.91;20870697;28;20764;-72
2021/04/01 08:16:30;;;;;;;33.73;22.10;;;;;;;15.78;83.27;100241.72;20890050;28;20242;-73
2021/04/01 08:36:36;;;;;;;20.47;18.13;;;;;;;16.85;79.27;100228.47;20845899;28;20224;-66
2021/04/01 08:47:18;;;;;;;29.60;22.93;;;;;;;17.82;71.94;100223.81;20821329;28;20591;-63
2021/04/01 08:57:28;;;;;;;30.23;26.30;;;;;;;18.36;70.47;100205.94;20769613;28;20232;-63
2021/04/01 09:07:33;;;;;;;32.13;27.20;;;;;;;18.59;67.44;100198.31;20828347;28;20219;-66
2021/04/01 09:17:37;;;;;;;23.00;19.50;;;;;;;18.94;69.12;100190.22;20840773;28;20228;-59
2021/04/01 09:27:49;;;;;;;26.93;18.57;;;;;;;19.76;62.21;100183.56;20809185;28;20224;-59
2021/04/01 09:38:08;;;;;;;22.50;17.93;;;;;;;20.08;62.87;100174.72;20803591;28;20220;-75
2021/04/01 09:48:13;;;;;;;20.57;16.80;;;;;;;20.13;62.01;100164.25;20784147;28;20223;-70
2021/04/01 09:58:25;;;;;;;23.43;18.37;;;;;;;20.17;56.33;100156.63;20845462;28;20227;-61
2021/04/01 10:08:30;;;;;;;19.67;15.00;;;;;;;20.32;59.33;100144.16;20773111;28;20265;-76
2021/04/01 10:18:34;;;;;;;17.67;14.30;;;;;;;20.47;58.66;100135.25;20785508;28;21813;-65
2021/04/01 10:28:39;;;;;;;24.17;16.73;;;;;;;20.68;55.92;100120.34;20774069;28;20277;-63
2021/04/01 10:38:41;;;;;;;18.57;14.03;;;;;;;20.95;54.55;100111.03;20774626;28;20235;-67
2021/04/01 10:48:46;;;;;;;28.00;18.97;;;;;;;21.70;51.09;100098.03;20770669;28;20312;-73
2021/04/01 10:58:55;;;;;;;29.20;18.50;;;;;;;22.27;47.56;100085.03;20758095;28;20232;-60
2021/04/01 11:09:01;;;;;;;28.27;18.40;;;;;;;22.64;47.84;100070.66;20788109;28;20227;-68
2021/04/01 11:19:02;;;;;;;18.47;14.03;;;;;;;23.33;50.04;100083.13;20765039;28;20335;-70
2021/04/01 11:29:12;;;;;;;20.10;14.03;;;;;;;22.76;45.07;100065.66;20795793;28;20228;-67
2021/04/01 11:39:58;;;;;;;17.27;13.37;;;;;;;22.07;45.03;100051.19;20807971;28;20294;-60
2021/04/01 11:49:33;;;;;;;21.17;15.53;;;;;;;21.65;47.65;100025.22;20786447;28;20231;-74
2021/04/01 11:59:36;;;;;;;18.77;12.73;;;;;;;21.50;46.73;100044.13;20779682;28;20255;-68
2021/04/01 12:09:36;;;;;;;25.53;16.57;;;;;;;21.02;45.98;100027.94;20813805;28;20223;-70
2021/04/01 12:19:37;;;;;;;24.23;15.87;;;;;;;21.15;42.86;100018.25;20789764;28;20738;-59
2021/04/01 12:29:45;;;;;;;16.87;11.60;;;;;;;21.83;44.62;100011.41;20779207;28;20330;-61
2021/04/01 12:39:45;;;;;;;26.77;17.10;;;;;;;22.50;41.67;99995.31;20845455;28;20232;-59
2021/04/01 12:49:46;;;;;;;21.93;15.63;;;;;;;22.08;41.72;99988.50;20873178;28;20229;-72
2021/04/01 12:59:50;;;;;;;19.47;14.73;;;;;;;21.77;41.04;99972.19;20877134;28;20238;-59
2021/04/01 13:20:10;;;;;;;16.10;11.70;;;;;;;21.57;42.40;99954.66;20827977;28;20228;-60
2021/04/01 13:30:12;;;;;;;14.90;10.43;;;;;;;21.34;35.56;99945.63;20802430;28;20253;-59
2021/04/01 13:40:16;;;;;;;23.70;16.47;;;;;;;21.10;42.87;99943.84;20832537;28;20235;-72
2021/04/01 13:50:20;;;;;;;15.57;11.97;;;;;;;20.27;39.08;99941.44;20795782;28;20688;-66
2021/04/01 14:00:26;;;;;;;25.53;16.47;;;;;;;20.03;42.24;99949.56;20793013;28;20306;-60
2021/04/01 14:10:27;;;;;;;26.80;18.37;;;;;;;18.59;53.40;99995.63;20802059;28;20215;-70
2021/04/01 14:20:28;;;;;;;26.73;18.50;;;;;;;16.12;58.23;99998.19;20800328;28;20235;-62
2021/04/01 14:30:32;;;;;;;29.07;19.77;;;;;;;17.39;55.74;99986.94;20803215;28;20228;-65
2021/04/01 14:41:00;;;;;;;27.50;19.53;;;;;;;17.64;56.23;100024.03;20781440;28;20220;-67
2021/04/01 14:51:01;;;;;;;32.43;22.33;;;;;;;17.29;56.86;100013.09;20802417;28;20216;-62
2021/04/01 15:01:01;;;;;;;25.08;19.27;;;;;;;17.05;57.92;99996.59;20793208;28;20220;-68
2021/04/01 15:11:03;;;;;;;24.33;18.03;;;;;;;17.07;54.75;99992.75;20830699;28;20220;-62
2021/04/01 15:21:04;;;;;;;22.27;16.77;;;;;;;16.95;50.11;99990.41;20804879;28;20598;-74
2021/04/01 15:31:09;;;;;;;22.37;16.17;;;;;;;16.81;51.93;99995.25;20807848;28;20223;-74
2021/04/01 15:41:09;;;;;;;23.17;16.40;;;;;;;16.63;51.48;100002.41;20810155;28;20234;-75
2021/04/01 15:51:10;;;;;;;23.57;15.97;;;;;;;16.56;52.36;99993.16;20820475;28;20580;-73
2021/04/01 16:01:10;;;;;;;22.83;15.20;;;;;;;16.07;51.41;100015.72;20835054;28;20231;-65
2021/04/01 16:11:10;;;;;;;18.40;12.67;;;;;;;15.61;50.09;100035.19;20820404;28;20281;-72
2021/04/01 16:21:11;;;;;;;16.03;10.40;;;;;;;15.25;51.27;100050.91;20836329;28;20950;-60
2021/04/01 16:31:14;;;;;;;12.37;8.33;;;;;;;14.52;56.03;100051.88;20814701;28;20219;-63
2021/04/01 16:41:16;;;;;;;12.03;8.07;;;;;;;14.01;57.36;100071.31;20828435;28;20278;-62
2021/04/01 16:51:17;;;;;;;9.40;6.37;;;;;;;13.65;59.90;100075.19;20805223;28;20896;-58
2021/04/01 17:01:18;;;;;;;10.73;6.10;;;;;;;13.38;60.49;100080.09;20815832;28;20229;-58
2021/04/01 17:31:14;;;;;;;12.00;7.63;;;;;;;12.93;62.46;100112.16;20912180;27;20567;-60
2021/04/01 17:41:15;;;;;;;17.73;12.23;;;;;;;12.28;71.00;100127.88;20851552;28;20709;-66
2021/04/01 17:51:16;;;;;;;17.93;14.33;;;;;;;11.67;71.84;100137.69;20873574;28;20583;-60
2021/04/01 18:32:04;;;;;;;25.13;18.90;;;;;;;11.73;74.03;100155.94;20811524;28;20278;-63
2021/04/01 18:42:12;;;;;;;21.77;16.43;;;;;;;11.71;74.44;100179.22;20793728;28;20795;-60
2021/04/01 18:52:22;;;;;;;25.63;17.67;;;;;;;11.75;75.82;100196.81;20811312;28;20549;-60
2021/04/01 19:02:23;;;;;;;20.33;17.33;;;;;;;11.53;78.13;100201.94;20792494;28;20835;-58
2021/04/01 19:32:53;;;;;;;22.80;18.30;;;;;;;10.70;90.46;100235.25;20984911;27;21308;-59
2021/04/01 19:42:55;;;;;;;62.03;36.27;;;;;;;9.52;100.00;100231.22;20944835;28;20253;-60
2021/04/01 19:52:56;;;;;;;54.80;33.57;;;;;;;8.75;100.00;100267.78;20934199;28;20391;-61
2021/04/01 20:02:57;;;;;;;37.10;24.80;;;;;;;8.26;100.00;100268.72;21011805;27;20226;-61
2021/04/01 20:12:58;;;;;;;33.70;24.03;;;;;;;8.11;100.00;100264.25;21024535;28;20216;-64
2021/04/01 20:52:53;;;;;;;6.00;5.47;;;;;;;6.87;100.00;100324.75;20929676;27;20560;-64
2021/04/01 21:02:54;;;;;;;6.03;5.53;;;;;;;6.46;100.00;100324.09;20949151;28;20242;-61
2021/04/01 21:43:02;;;;;;;2.97;2.00;;;;;;;5.59;98.00;100372.16;21026967;27;20607;-70
2021/04/01 22:54:01;;;;;;;2.97;2.77;;;;;;;5.25;97.59;100413.28;20802640;28;20680;-70
2021/04/01 23:04:03;;;;;;;2.43;2.23;;;;;;;5.25;98.35;100420.34;20782937;28;20310;-67
2021/04/01 23:14:03;;;;;;;2.10;2.00;;;;;;;5.23;97.04;100433.63;20776801;28;20212;-70
2021/04/01 23:24:04;;;;;;;2.10;2.00;;;;;;;5.10;94.62;100450.91;20787944;28;20318;-66
